Jonesborough, TN

6:12 AM EST on November 28, 2014 (GMT -0500)
Sand Valley Estates | Change Station
CLOSE
Current Station
Personal Weather Station
Location: Jonesborough, TN
Elevation: 1732 ft
Nearby Weather Stations

Elev 1732 ft 36.27 °N, 82.51 °W | Updated 1 minute ago

Overcast
Overcast
24.7 °F
Feels Like 25 °F
N
0.0
Wind Variable Wind from West
Gusts 0.0 mph

Today
High -- | Low -- °F
--% Chance of Precip.
Yesterday
High -- | Low -- °F
Precip. -- in
7:19 AM 5:15 PM
Waxing Crescent, 39% visible
Pressure 30.35 in
Visibility 10.0 miles
Clouds Overcast 3600 ft
Windchill 25 °F
Dew Point 20 °F
Humidity 81%
Rainfall 0.00 in
Snow Depth Not available.
UV 0 out of 12
Pollen .10 out of 12
Air Quality Not available.
Flu Activity Not available.
METAR KTRI 281053Z 30006KT 10SM OVC036 M02/M07 A3034 RMK AO2 SLP276 T10171072

More Conditions Fewer Conditions

Pressure 30.35 in
Visibility 10.0 miles
Clouds Overcast 3600 ft
Windchill 25 °F
Dew Point 20 °F
Humidity 81%
Rainfall 0.00 in
Snow Depth Not available.
UV 0 out of 12
Pollen .10 out of 12
Air Quality Not available.
Flu Activity Not available.
METAR KTRI 281053Z 30006KT 10SM OVC036 M02/M07 A3034 RMK AO2 SLP276 T10171072

More Conditions Fewer Conditions

10-Day Weather Forecast

Almanac

Astronomy

Nov. 28, 2014 Rise Set
Actual Time
Civil Twilight
Nautical Twilight
Astronomical Twilight
Moon
Length of Visible Light
Length of Day
Tomorrow will be .
, % of the Moon is Illuminated

Today's Extremes

State Highs State Lows

Community

WunderPhotos

Upload Photos

1,774,192 photos uploaded!

WunderBlogs® & News

Nearby

Air Quality

  Air Quality AQ Index Pollutant
Not available.

Snow Depth

Station Depth Elevation

Earthquake Activity

City Distance Mag. Time & Date
Minimum magnitude displayed is 2.5.

Coastal Water Temperatures

Place Temperature

Nearby Weather Stations